Time;durP1;ratioP1;P1;durP2;ratioP2;P2;SDS_P1;SDS_P2;PMS_P1;PMS_P2;Temp;Humidity;BMP_temperature;BMP_pressure;BME280_temperature;BME280_humidity;BME280_pressure;Samples;Min_cycle;Max_cycle;Signal;HPM_P1;HPM_P2
2021/08/04 00:02:20;;;;;;;;;;;;;;;28.57;43.42;100676.28;5118561;28;840;-35
2021/08/04 00:04:45;;;;;;;;;;;;;;;28.35;45.69;100678.16;5118396;28;839;-34
2021/08/04 00:07:11;;;;;;;;;;;;;;;27.42;44.29;100666.03;5118152;28;1906;-34
2021/08/04 00:09:36;;;;;;;;;;;;;;;26.98;47.36;100674.72;5118602;28;827;-33
2021/08/04 00:12:01;;;;;;;;;;;;;;;27.89;44.65;100674.75;5117712;28;965;-34
2021/08/04 00:14:27;;;;;;;;;;;;;;;28.02;45.75;100679.47;5118061;28;780;-33
2021/08/04 00:16:52;;;;;;;;;;;;;;;28.62;43.05;100681.13;5118755;28;803;-32
2021/08/04 00:19:17;;;;;;;;;;;;;;;27.86;42.47;100684.06;5118205;28;811;-34
2021/08/04 00:21:43;;;;;;;;;;;;;;;27.12;44.07;100675.81;5118360;28;763;-34
2021/08/04 00:24:08;;;;;;;;;;;;;;;27.27;46.45;100666.88;5118376;28;738;-34
2021/08/04 00:26:33;;;;;;;;;;;;;;;28.15;43.85;100676.06;5117069;28;1939;-33
2021/08/04 00:28:58;;;;;;;;;;;;;;;28.37;43.52;100673.41;5118263;28;759;-34
2021/08/04 00:31:24;;;;;;;;;;;;;;;28.29;45.77;100670.78;5118043;28;834;-31
2021/08/04 00:33:49;;;;;;;;;;;;;;;28.72;42.83;100678.06;5117841;28;755;-34
2021/08/04 00:36:14;;;;;;;;;;;;;;;28.54;44.32;100681.25;5118173;28;878;-32
2021/08/04 00:38:39;;;;;;;;;;;;;;;27.40;44.29;100671.59;5117412;28;837;-34
2021/08/04 00:41:05;;;;;;;;;;;;;;;26.81;46.25;100674.03;5116939;28;950;-33
2021/08/04 00:43:30;;;;;;;;;;;;;;;27.07;49.37;100662.03;5117694;28;809;-34
2021/08/04 00:45:55;;;;;;;;;;;;;;;28.13;46.16;100677.28;5117516;28;1905;-35
2021/08/04 00:48:21;;;;;;;;;;;;;;;28.28;46.33;100678.06;5117808;28;890;-34
2021/08/04 00:50:46;;;;;;;;;;;;;;;28.60;47.24;100675.91;5099404;28;1459;-35
2021/08/04 00:53:22;;;;;;;;;;;;;;;27.70;46.73;100673.47;5115440;28;1296;-35
2021/08/04 00:55:47;;;;;;;;;;;;;;;27.02;46.93;100672.53;5097207;28;1174;-33
2021/08/04 00:58:13;;;;;;;;;;;;;;;27.70;47.76;100676.16;5115501;28;1025;-34
2021/08/04 01:00:40;;;;;;;;;;;;;;;28.15;48.96;100670.66;5117455;28;716;-34
2021/08/04 01:03:05;;;;;;;;;;;;;;;28.68;45.69;100666.78;5099661;28;810;-33
2021/08/04 01:05:51;;;;;;;;;;;;;;;28.48;47.09;100663.91;5098978;28;1914;-35
2021/08/04 01:08:17;;;;;;;;;;;;;;;27.32;47.30;100666.31;5106109;28;1260;-32
2021/08/04 01:10:43;;;;;;;;;;;;;;;27.29;49.82;100669.38;5117556;28;756;-30
2021/08/04 01:13:15;;;;;;;;;;;;;;;28.21;46.78;100667.16;5116499;28;946;-33
2021/08/04 01:15:46;;;;;;;;;;;;;;;28.50;46.54;100663.72;5099100;28;744;-33
2021/08/04 01:18:12;;;;;;;;;;;;;;;28.44;49.09;100665.34;5098780;28;985;-34
2021/08/04 01:20:37;;;;;;;;;;;;;;;27.69;46.68;100659.13;5116123;28;815;-34
2021/08/04 01:23:08;;;;;;;;;;;;;;;27.30;49.37;100661.09;5117159;28;780;-34
2021/08/04 01:25:45;;;;;;;;;;;;;;;28.07;47.34;100655.41;5117583;28;1967;-32
2021/08/04 01:28:49;;;;;;;;;;;;;;;28.27;47.44;100662.03;5116935;28;985;-34
2021/08/04 01:31:18;;;;;;;;;;;;;;;28.48;49.15;100667.47;5054148;28;1197;-35
2021/08/04 01:33:44;;;;;;;;;;;;;;;27.45;46.94;100655.69;5037895;28;792;-31
2021/08/04 01:36:09;;;;;;;;;;;;;;;27.44;49.77;100658.56;5084542;28;1155;-33
2021/08/04 01:38:35;;;;;;;;;;;;;;;28.28;46.96;100663.72;5117515;28;749;-32
2021/08/04 01:41:00;;;;;;;;;;;;;;;28.31;47.36;100664.16;5098841;28;792;-35
2021/08/04 01:43:25;;;;;;;;;;;;;;;28.77;46.21;100674.78;5097923;28;997;-34
2021/08/04 01:45:51;;;;;;;;;;;;;;;27.88;45.57;100662.25;5098609;28;1902;-34
2021/08/04 01:48:16;;;;;;;;;;;;;;;27.20;48.35;100661.38;5116882;28;1043;-32
2021/08/04 01:50:42;;;;;;;;;;;;;;;27.97;46.81;100666.53;5098756;28;822;-33
2021/08/04 01:53:07;;;;;;;;;;;;;;;28.03;48.92;100662.19;5097369;28;1195;-32
2021/08/04 01:55:32;;;;;;;;;;;;;;;28.70;45.27;100667.44;5077762;28;1338;-34
2021/08/04 01:57:58;;;;;;;;;;;;;;;28.48;45.34;100667.47;5112591;28;1021;-34
2021/08/04 02:00:23;;;;;;;;;;;;;;;27.51;46.27;100668.44;5116796;28;832;-31
2021/08/04 02:02:48;;;;;;;;;;;;;;;27.57;48.91;100666.00;5116855;28;766;-34
2021/08/04 02:05:14;;;;;;;;;;;;;;;28.18;47.45;100675.69;5116660;28;1910;-34
2021/08/04 02:07:53;;;;;;;;;;;;;;;28.24;50.37;100676.78;5116794;28;810;-35
2021/08/04 02:10:20;;;;;;;;;;;;;;;28.13;51.75;100672.72;5098657;28;760;-34
2021/08/04 02:12:46;;;;;;;;;;;;;;;28.53;51.65;100677.69;5116407;28;950;-34
2021/08/04 02:15:11;;;;;;;;;;;;;;;28.47;48.51;100668.50;5098529;28;775;-34
2021/08/04 02:17:40;;;;;;;;;;;;;;;27.41;47.86;100662.47;5116585;28;780;-33
2021/08/04 02:20:14;;;;;;;;;;;;;;;27.74;48.74;100664.78;5116932;28;844;-33
2021/08/04 02:22:42;;;;;;;;;;;;;;;28.32;48.86;100668.53;5116641;28;775;-34
2021/08/04 02:25:10;;;;;;;;;;;;;;;28.64;46.78;100673.66;5116282;28;1910;-33
2021/08/04 02:27:36;;;;;;;;;;;;;;;28.40;49.26;100673.00;5116170;28;1009;-35
2021/08/04 02:30:01;;;;;;;;;;;;;;;29.01;46.42;100670.81;5117005;28;760;-34
2021/08/04 02:32:27;;;;;;;;;;;;;;;27.91;45.92;100678.09;5101771;28;844;-35
2021/08/04 02:34:52;;;;;;;;;;;;;;;27.43;46.63;100684.75;5119948;28;825;-30
2021/08/04 02:37:18;;;;;;;;;;;;;;;27.67;48.30;100688.19;5120403;28;767;-32
2021/08/04 02:39:43;;;;;;;;;;;;;;;28.38;47.04;100694.00;5120432;28;801;-34
2021/08/04 02:42:08;;;;;;;;;;;;;;;28.67;45.71;100703.03;5101376;28;950;-33
2021/08/04 02:44:33;;;;;;;;;;;;;;;28.25;48.95;100702.78;5120046;28;775;-35
2021/08/04 02:46:59;;;;;;;;;;;;;;;28.91;45.81;100700.91;5101598;28;1968;-35
2021/08/04 02:49:24;;;;;;;;;;;;;;;28.61;44.91;100695.69;5101931;28;799;-35
2021/08/04 02:51:49;;;;;;;;;;;;;;;27.39;46.64;100691.56;5119765;28;827;-34
2021/08/04 02:54:16;;;;;;;;;;;;;;;27.67;47.65;100695.44;5101308;28;1168;-34
2021/08/04 02:56:41;;;;;;;;;;;;;;;28.41;46.24;100700.91;5119814;28;977;-33
2021/08/04 02:59:07;;;;;;;;;;;;;;;28.69;45.56;100706.38;5119835;28;827;-34
2021/08/04 03:01:32;;;;;;;;;;;;;;;28.41;47.81;100709.84;5119435;28;811;-33
2021/08/04 03:03:57;;;;;;;;;;;;;;;28.95;45.25;100709.47;5119824;28;763;-35
2021/08/04 03:06:23;;;;;;;;;;;;;;;28.57;44.81;100706.06;5119348;28;1921;-35
2021/08/04 03:08:48;;;;;;;;;;;;;;;27.54;45.59;100705.06;5119752;28;791;-34
2021/08/04 03:11:13;;;;;;;;;;;;;;;27.56;47.48;100702.97;5119351;28;962;-31
2021/08/04 03:13:38;;;;;;;;;;;;;;;28.42;46.38;100700.72;5119222;28;791;-35
2021/08/04 03:16:04;;;;;;;;;;;;;;;28.69;45.59;100708.25;5119563;28;850;-32
2021/08/04 03:18:29;;;;;;;;;;;;;;;28.46;47.37;100712.00;5119314;28;780;-34
2021/08/04 03:20:54;;;;;;;;;;;;;;;29.08;44.32;100717.72;5119617;28;806;-33
2021/08/04 03:23:20;;;;;;;;;;;;;;;28.57;43.72;100711.47;5119585;28;763;-33
2021/08/04 03:25:45;;;;;;;;;;;;;;;27.46;45.79;100711.38;5118853;28;1913;-30
2021/08/04 03:28:10;;;;;;;;;;;;;;;27.57;46.97;100704.69;5118664;28;1013;-33
2021/08/04 03:30:36;;;;;;;;;;;;;;;28.44;45.27;100706.78;5119065;28;824;-34
2021/08/04 03:33:01;;;;;;;;;;;;;;;28.54;45.39;100716.44;5119299;28;835;-34
2021/08/04 03:35:26;;;;;;;;;;;;;;;28.50;47.45;100715.97;5118894;28;887;-35
2021/08/04 03:37:51;;;;;;;;;;;;;;;27.77;45.04;100709.53;5119048;28;847;-35
2021/08/04 03:40:17;;;;;;;;;;;;;;;27.45;45.38;100709.72;5119057;28;818;-33
2021/08/04 03:42:42;;;;;;;;;;;;;;;27.91;46.52;100715.09;5117694;28;986;-35
2021/08/04 03:45:07;;;;;;;;;;;;;;;28.32;47.76;100721.78;5118615;28;874;-35
2021/08/04 03:47:33;;;;;;;;;;;;;;;28.83;46.68;100722.72;5119069;28;1902;-35
2021/08/04 03:49:58;;;;;;;;;;;;;;;28.63;48.51;100719.84;5119206;28;806;-36
2021/08/04 03:52:23;;;;;;;;;;;;;;;27.77;46.45;100722.19;5117588;28;1282;-32
2021/08/04 03:54:49;;;;;;;;;;;;;;;27.46;48.44;100729.47;5117946;28;995;-37
2021/08/04 03:57:14;;;;;;;;;;;;;;;27.49;55.97;100723.69;5107878;28;834;-32
2021/08/04 03:59:40;;;;;;;;;;;;;;;23.48;58.09;100713.88;5098128;28;839;-34
2021/08/04 04:02:05;;;;;;;;;;;;;;;21.12;56.88;100715.16;5098203;28;764;-37
2021/08/04 04:04:30;;;;;;;;;;;;;;;19.90;57.09;100712.59;5097945;28;883;-37
2021/08/04 04:06:56;;;;;;;;;;;;;;;19.14;57.41;100706.63;5097881;28;1964;-40
2021/08/04 04:09:21;;;;;;;;;;;;;;;18.58;57.41;100709.38;5098373;28;771;-35
2021/08/04 04:11:46;;;;;;;;;;;;;;;18.28;56.16;100713.59;5104170;28;1001;-37
2021/08/04 04:14:11;;;;;;;;;;;;;;;17.82;56.58;100710.09;5118883;28;783;-37
2021/08/04 04:16:37;;;;;;;;;;;;;;;17.43;56.74;100711.31;5117849;28;870;-36
2021/08/04 04:19:02;;;;;;;;;;;;;;;17.27;57.23;100708.97;5118414;28;794;-38
2021/08/04 04:21:27;;;;;;;;;;;;;;;17.13;58.05;100710.84;5118462;28;755;-39
2021/08/04 04:23:52;;;;;;;;;;;;;;;17.00;58.00;100710.91;5118004;28;816;-38
2021/08/04 04:26:18;;;;;;;;;;;;;;;16.92;57.93;100707.13;5117610;28;1956;-38
2021/08/04 04:28:43;;;;;;;;;;;;;;;17.67;60.31;100710.34;5118295;28;821;-36
2021/08/04 04:31:08;;;;;;;;;;;;;;;18.89;59.88;100713.13;5117733;28;783;-37
2021/08/04 04:33:34;;;;;;;;;;;;;;;19.20;59.98;100714.09;5118086;28;797;-36
2021/08/04 04:35:59;;;;;;;;;;;;;;;19.85;57.88;100720.19;5117926;28;852;-36
2021/08/04 04:38:25;;;;;;;;;;;;;;;20.70;58.06;100726.16;5117518;28;1507;-34
2021/08/04 04:40:50;;;;;;;;;;;;;;;21.21;55.61;100713.47;5118135;28;740;-36
2021/08/04 04:43:15;;;;;;;;;;;;;;;20.87;56.52;100720.09;5117118;28;961;-37
2021/08/04 04:45:40;;;;;;;;;;;;;;;21.34;55.35;100723.00;5117582;28;1901;-37
2021/08/04 04:48:06;;;;;;;;;;;;;;;21.19;57.05;100722.63;5117713;28;922;-37
2021/08/04 04:50:32;;;;;;;;;;;;;;;21.83;55.98;100722.88;5117759;28;732;-37
2021/08/04 04:52:57;;;;;;;;;;;;;;;21.80;55.23;100727.69;5117371;28;473;-36
2021/08/04 04:55:22;;;;;;;;;;;;;;;22.20;54.20;100733.69;5117039;28;1198;-37
2021/08/04 04:57:48;;;;;;;;;;;;;;;21.92;54.63;100739.06;5116737;28;1037;-37
2021/08/04 05:00:13;;;;;;;;;;;;;;;22.11;54.26;100736.28;5118095;28;779;-35
2021/08/04 05:02:39;;;;;;;;;;;;;;;22.13;54.47;100739.66;5117661;28;813;-39
2021/08/04 05:05:04;;;;;;;;;;;;;;;22.05;54.09;100738.72;5117847;28;763;-37
2021/08/04 05:07:30;;;;;;;;;;;;;;;22.06;53.85;100745.75;5117189;28;1971;-37
2021/08/04 05:09:55;;;;;;;;;;;;;;;21.85;54.46;100742.34;5117354;28;739;-39
2021/08/04 05:12:20;;;;;;;;;;;;;;;22.12;53.63;100743.31;5106012;28;946;-38
2021/08/04 05:14:46;;;;;;;;;;;;;;;22.09;53.89;100743.63;5096801;28;796;-38
2021/08/04 05:17:13;;;;;;;;;;;;;;;22.14;53.75;100752.06;5096890;28;784;-38
2021/08/04 05:19:38;;;;;;;;;;;;;;;22.36;53.40;100749.94;5097048;28;763;-36
2021/08/04 05:22:03;;;;;;;;;;;;;;;22.29;53.28;100746.19;5096603;28;894;-36
2021/08/04 05:24:29;;;;;;;;;;;;;;;22.32;55.03;100751.22;5097024;28;778;-37
2021/08/04 05:26:54;;;;;;;;;;;;;;;22.50;53.37;100755.78;5103773;28;1961;-40
2021/08/04 05:29:19;;;;;;;;;;;;;;;22.62;53.13;100759.97;5117457;28;743;-38
2021/08/04 05:31:44;;;;;;;;;;;;;;;22.69;53.06;100754.00;5117296;28;831;-40
2021/08/04 05:34:10;;;;;;;;;;;;;;;22.76;53.71;100768.47;5117011;28;756;-35
2021/08/04 05:36:35;;;;;;;;;;;;;;;22.51;54.49;100773.56;5116806;28;901;-37
2021/08/04 05:39:00;;;;;;;;;;;;;;;22.70;54.40;100783.34;5117533;28;790;-36
2021/08/04 05:41:25;;;;;;;;;;;;;;;23.04;52.76;100780.97;5116424;28;974;-37
2021/08/04 05:43:51;;;;;;;;;;;;;;;22.68;53.44;100774.59;5116949;28;774;-35
2021/08/04 05:46:16;;;;;;;;;;;;;;;22.48;53.91;100771.19;5117319;28;1909;-34
2021/08/04 05:48:41;;;;;;;;;;;;;;;22.58;53.73;100773.78;5097958;28;839;-34
2021/08/04 05:51:07;;;;;;;;;;;;;;;22.65;53.15;100768.69;5096651;28;814;-35
2021/08/04 05:53:32;;;;;;;;;;;;;;;22.52;53.36;100772.56;5096455;28;1181;-37
2021/08/04 05:55:57;;;;;;;;;;;;;;;22.48;53.44;100774.72;5076450;28;862;-36
2021/08/04 05:58:22;;;;;;;;;;;;;;;22.52;53.12;100772.56;5089505;28;959;-37
2021/08/04 06:00:48;;;;;;;;;;;;;;;22.63;52.32;100780.44;5076324;28;803;-37
2021/08/04 06:03:13;;;;;;;;;;;;;;;22.80;52.75;100779.75;5076401;28;812;-39
2021/08/04 06:05:38;;;;;;;;;;;;;;;23.42;51.70;100784.28;5079555;28;1972;-38
2021/08/04 06:08:05;;;;;;;;;;;;;;;23.03;53.35;100784.63;5083531;28;1837;-37
2021/08/04 06:10:31;;;;;;;;;;;;;;;23.28;52.67;100785.69;5078730;28;851;-36
2021/08/04 06:12:56;;;;;;;;;;;;;;;22.83;52.51;100788.34;5078678;28;859;-35
2021/08/04 06:15:21;;;;;;;;;;;;;;;22.79;52.45;100786.13;5079286;28;796;-36
2021/08/04 06:17:47;;;;;;;;;;;;;;;22.88;53.02;100795.91;5079465;28;816;-36
2021/08/04 06:20:12;;;;;;;;;;;;;;;23.05;53.02;100788.00;5080286;28;818;-33
2021/08/04 06:22:37;;;;;;;;;;;;;;;22.71;53.38;100782.34;5075694;28;1479;-36
2021/08/04 06:25:03;;;;;;;;;;;;;;;22.71;52.40;100789.53;5079435;28;906;-36
2021/08/04 06:27:28;;;;;;;;;;;;;;;23.30;52.21;100790.91;5079040;28;1909;-32
2021/08/04 06:29:54;;;;;;;;;;;;;;;23.28;52.14;100795.56;5084005;28;1237;-31
2021/08/04 06:32:19;;;;;;;;;;;;;;;23.06;51.92;100790.53;5079243;28;1128;-35
2021/08/04 06:34:44;;;;;;;;;;;;;;;22.85;52.51;100793.53;5082503;28;924;-36
2021/08/04 06:37:10;;;;;;;;;;;;;;;23.04;52.06;100791.72;5099575;28;1238;-36
2021/08/04 06:39:35;;;;;;;;;;;;;;;23.62;51.09;100794.84;5099510;28;807;-32
2021/08/04 06:42:01;;;;;;;;;;;;;;;23.76;50.78;100800.59;5099184;28;797;-39
2021/08/04 06:44:27;;;;;;;;;;;;;;;23.36;51.28;100796.47;5099200;28;867;-29
2021/08/04 06:46:56;;;;;;;;;;;;;;;23.17;51.01;100791.31;5098396;28;1897;-31
2021/08/04 06:49:21;;;;;;;;;;;;;;;23.72;50.82;100792.88;5082240;28;1103;-32
2021/08/04 06:51:46;;;;;;;;;;;;;;;23.82;49.77;100795.44;5099458;28;823;-29
2021/08/04 06:54:12;;;;;;;;;;;;;;;24.16;49.90;100792.91;5099163;28;1111;-39
2021/08/04 06:56:37;;;;;;;;;;;;;;;24.40;48.92;100800.28;5098759;28;804;-37
2021/08/04 06:59:02;;;;;;;;;;;;;;;24.64;54.48;100803.19;5098738;28;844;-35
2021/08/04 07:01:28;;;;;;;;;;;;;;;24.45;53.39;100805.16;5099471;28;835;-35
2021/08/04 07:03:53;;;;;;;;;;;;;;;24.45;51.49;100794.41;5098682;28;855;-36
2021/08/04 07:06:18;;;;;;;;;;;;;;;24.68;50.83;100801.84;5098561;28;1910;-33
2021/08/04 07:08:43;;;;;;;;;;;;;;;24.59;50.25;100798.28;5098994;28;768;-34
2021/08/04 07:11:09;;;;;;;;;;;;;;;24.58;48.81;100799.31;5098314;28;836;-35
2021/08/04 07:13:34;;;;;;;;;;;;;;;24.22;49.95;100800.38;5099088;28;736;-32
2021/08/04 07:15:59;;;;;;;;;;;;;;;24.49;50.11;100801.13;5099198;28;827;-30
2021/08/04 07:18:25;;;;;;;;;;;;;;;24.54;50.16;100795.28;5096942;28;749;-36
2021/08/04 07:20:50;;;;;;;;;;;;;;;24.75;50.06;100800.19;5080052;28;1378;-35
2021/08/04 07:23:15;;;;;;;;;;;;;;;25.01;50.57;100795.69;5098964;28;787;-31
2021/08/04 07:25:41;;;;;;;;;;;;;;;25.49;62.77;100792.31;5082922;28;1906;-34
2021/08/04 07:28:06;;;;;;;;;;;;;;;25.24;56.74;100790.47;5077829;28;1047;-35
2021/08/04 07:30:31;;;;;;;;;;;;;;;25.09;53.97;100784.09;5078562;28;767;-35
2021/08/04 07:32:57;;;;;;;;;;;;;;;24.85;52.33;100774.97;5078477;28;842;-32
2021/08/04 07:35:22;;;;;;;;;;;;;;;24.77;52.07;100784.72;5086724;28;955;-34
2021/08/04 07:37:47;;;;;;;;;;;;;;;24.29;49.70;100771.81;5098201;28;807;-36
2021/08/04 07:40:13;;;;;;;;;;;;;;;24.46;51.55;100772.72;5098864;28;817;-33
2021/08/04 07:42:39;;;;;;;;;;;;;;;23.84;50.66;100774.66;5097612;28;834;-39
2021/08/04 07:45:04;;;;;;;;;;;;;;;22.89;50.94;100775.31;5098449;28;799;-25
2021/08/04 07:47:29;;;;;;;;;;;;;;;23.48;52.28;100783.69;5079961;28;1974;-25
2021/08/04 07:49:55;;;;;;;;;;;;;;;23.88;50.99;100785.91;5096949;28;947;-23
2021/08/04 07:52:20;;;;;;;;;;;;;;;24.15;51.08;100789.41;5098364;28;760;-24
2021/08/04 07:54:45;;;;;;;;;;;;;;;24.51;50.05;100800.94;5098043;28;1204;-23
2021/08/04 07:57:11;;;;;;;;;;;;;;;24.13;51.46;100799.47;5097552;28;759;-43
2021/08/04 07:59:36;;;;;;;;;;;;;;;24.58;61.80;100794.78;5097848;28;811;-23
2021/08/04 08:02:03;;;;;;;;;;;;;;;25.48;65.57;100790.59;5098027;28;811;-38
2021/08/04 08:04:29;;;;;;;;;;;;;;;25.22;62.32;100788.97;5096958;28;994;-37
2021/08/04 08:06:54;;;;;;;;;;;;;;;24.00;59.44;100796.38;5097956;28;1906;-24
2021/08/04 08:09:21;;;;;;;;;;;;;;;24.35;57.27;100789.16;5097695;28;843;-38
2021/08/04 08:11:47;;;;;;;;;;;;;;;23.64;56.48;100786.63;5097219;28;788;-32
2021/08/04 08:14:12;;;;;;;;;;;;;;;23.76;55.82;100789.88;5097763;28;748;-39
2021/08/04 08:16:37;;;;;;;;;;;;;;;23.01;55.06;100782.09;5097411;28;855;-23
2021/08/04 08:19:03;;;;;;;;;;;;;;;22.97;52.33;100780.75;5096834;28;862;-22
2021/08/04 08:21:28;;;;;;;;;;;;;;;22.89;51.80;100775.31;5097707;28;994;-38
2021/08/04 08:23:53;;;;;;;;;;;;;;;23.07;51.66;100770.75;5096985;28;1198;-23
2021/08/04 08:26:21;;;;;;;;;;;;;;;23.19;50.44;100778.56;5076879;28;1902;-39
2021/08/04 08:28:46;;;;;;;;;;;;;;;22.72;50.73;100778.66;5076436;28;780;-38
2021/08/04 08:31:11;;;;;;;;;;;;;;;22.50;48.68;100769.19;5076814;28;1521;-23
2021/08/04 08:33:37;;;;;;;;;;;;;;;21.86;50.04;100772.63;5076750;28;836;-23
2021/08/04 08:36:02;;;;;;;;;;;;;;;21.88;49.00;100776.84;5092018;28;932;-37
2021/08/04 08:38:27;;;;;;;;;;;;;;;21.80;51.63;100776.75;5079032;28;1529;-23
2021/08/04 08:40:53;;;;;;;;;;;;;;;21.54;49.12;100766.63;5096797;28;863;-39
2021/08/04 08:43:19;;;;;;;;;;;;;;;21.68;49.29;100769.84;5096653;28;855;-42
2021/08/04 08:45:44;;;;;;;;;;;;;;;21.90;49.62;100764.13;5097384;28;1956;-23
2021/08/04 08:48:10;;;;;;;;;;;;;;;22.01;49.27;100771.16;5078246;28;1141;-24
2021/08/04 08:50:37;;;;;;;;;;;;;;;22.41;48.87;100770.09;5078126;28;967;-24
2021/08/04 08:53:02;;;;;;;;;;;;;;;22.31;50.01;100776.34;5096696;28;823;-34
2021/08/04 08:55:27;;;;;;;;;;;;;;;22.78;49.73;100768.31;5096086;28;1041;-24
2021/08/04 08:57:53;;;;;;;;;;;;;;;21.65;51.08;100769.13;5078411;28;773;-26
2021/08/04 09:00:18;;;;;;;;;;;;;;;21.99;47.99;100767.78;5097391;28;827;-33
2021/08/04 09:02:43;;;;;;;;;;;;;;;21.35;49.44;100771.06;5096924;28;751;-22
2021/08/04 09:05:09;;;;;;;;;;;;;;;21.90;48.98;100774.84;5096099;28;970;-35
2021/08/04 09:07:36;;;;;;;;;;;;;;;21.69;48.59;100768.88;5096613;28;1914;-22
2021/08/04 09:10:02;;;;;;;;;;;;;;;22.90;49.99;100772.47;5096042;28;824;-26
2021/08/04 09:12:27;;;;;;;;;;;;;;;22.85;49.67;100769.41;5096708;28;748;-34
2021/08/04 09:14:53;;;;;;;;;;;;;;;23.52;50.74;100776.16;5096490;28;963;-32
2021/08/04 09:17:18;;;;;;;;;;;;;;;23.99;50.21;100778.59;5096310;28;847;-36
2021/08/04 09:19:47;;;;;;;;;;;;;;;23.53;48.92;100772.47;5077996;28;919;-27
2021/08/04 09:22:12;;;;;;;;;;;;;;;23.97;49.09;100782.25;5096791;28;787;-28
2021/08/04 09:24:56;;;;;;;;;;;;;;;23.79;48.36;100776.97;5089242;28;1091;-37
2021/08/04 09:27:40;;;;;;;;;;;;;;;23.51;48.11;100778.97;5076195;28;1963;-35
2021/08/04 09:30:05;;;;;;;;;;;;;;;23.68;49.94;100775.41;5076042;28;827;-26
2021/08/04 09:32:31;;;;;;;;;;;;;;;25.03;46.14;100778.38;5075642;28;795;-26
2021/08/04 09:34:57;;;;;;;;;;;;;;;25.53;45.90;100777.47;5081756;28;919;-37
2021/08/04 09:37:22;;;;;;;;;;;;;;;25.92;45.28;100770.50;5096662;28;1474;-25
2021/08/04 09:39:47;;;;;;;;;;;;;;;24.72;48.60;100767.38;5095544;28;828;-30
2021/08/04 09:42:13;;;;;;;;;;;;;;;24.33;51.73;100764.28;5100029;28;817;-30
2021/08/04 09:44:54;;;;;;;;;;;;;;;25.82;46.89;100754.53;5100350;28;811;-31
2021/08/04 09:47:19;;;;;;;;;;;;;;;24.67;50.24;100757.13;5100212;28;1897;-35
2021/08/04 09:49:57;;;;;;;;;;;;;;;24.64;51.90;100757.47;5100434;28;1059;-25
2021/08/04 09:52:22;;;;;;;;;;;;;;;25.99;47.34;100743.69;5100529;28;762;-27
2021/08/04 09:54:48;;;;;;;;;;;;;;;24.83;50.74;100750.91;5099911;28;1028;-27
2021/08/04 09:57:13;;;;;;;;;;;;;;;24.26;51.88;100753.34;5100832;28;787;-33
2021/08/04 09:59:38;;;;;;;;;;;;;;;24.88;52.24;100748.56;5099739;28;887;-34
2021/08/04 10:02:04;;;;;;;;;;;;;;;26.04;48.34;100747.53;5099995;28;847;-34
2021/08/04 10:04:30;;;;;;;;;;;;;;;24.69;51.49;100755.94;5100098;28;1021;-35
2021/08/04 10:07:05;;;;;;;;;;;;;;;24.62;53.23;100754.09;5100054;28;1917;-26
2021/08/04 10:09:30;;;;;;;;;;;;;;;26.11;48.05;100742.25;5099777;28;917;-36
2021/08/04 10:11:56;;;;;;;;;;;;;;;24.58;52.19;100735.59;5100069;28;854;-25
2021/08/04 10:14:22;;;;;;;;;;;;;;;24.17;52.83;100736.34;5099857;28;783;-34
2021/08/04 10:16:48;;;;;;;;;;;;;;;24.73;53.72;100736.78;5099813;28;767;-37
2021/08/04 10:19:13;;;;;;;;;;;;;;;26.19;48.85;100733.31;5099605;28;586;-29
2021/08/04 10:21:41;;;;;;;;;;;;;;;24.70;52.21;100732.59;5099419;28;954;-36
2021/08/04 10:24:07;;;;;;;;;;;;;;;24.16;53.29;100734.66;5099245;28;906;-28
2021/08/04 10:26:33;;;;;;;;;;;;;;;24.54;53.88;100736.94;5081433;28;1893;-26
2021/08/04 10:28:58;;;;;;;;;;;;;;;26.11;48.46;100727.97;5099849;28;860;-33
2021/08/04 10:31:26;;;;;;;;;;;;;;;24.80;51.87;100733.28;5099246;28;792;-26
2021/08/04 10:33:52;;;;;;;;;;;;;;;24.72;51.62;100725.19;5099362;28;812;-36
2021/08/04 10:36:18;;;;;;;;;;;;;;;25.05;52.52;100717.16;5082459;28;1001;-35
2021/08/04 10:38:49;;;;;;;;;;;;;;;26.33;48.30;100718.25;5078741;28;723;-29
2021/08/04 10:41:14;;;;;;;;;;;;;;;25.10;51.38;100723.84;5079024;28;767;-26
2021/08/04 10:43:44;;;;;;;;;;;;;;;24.73;51.91;100716.09;5079243;28;772;-36
2021/08/04 10:46:32;;;;;;;;;;;;;;;24.61;51.69;100718.28;5079151;28;1909;-36
2021/08/04 10:48:58;;;;;;;;;;;;;;;25.76;49.91;100718.34;5068330;28;1619;-26
2021/08/04 10:51:23;;;;;;;;;;;;;;;25.39;49.94;100712.53;5096087;28;943;-25
2021/08/04 10:54:01;;;;;;;;;;;;;;;24.73;51.54;100713.41;5098711;28;1216;-29
2021/08/04 10:56:32;;;;;;;;;;;;;;;24.49;51.60;100698.94;5098420;28;1353;-24
2021/08/04 10:59:13;;;;;;;;;;;;;;;24.91;53.20;100704.34;5099338;28;822;-35
2021/08/04 11:01:39;;;;;;;;;;;;;;;26.36;48.42;100699.00;5098609;28;839;-34
2021/08/04 11:04:05;;;;;;;;;;;;;;;27.04;47.10;100692.09;5098886;28;883;-25
2021/08/04 11:06:30;;;;;;;;;;;;;;;27.36;46.41;100687.34;5098891;28;1910;-27
2021/08/04 11:09:14;;;;;;;;;;;;;;;27.48;45.86;100687.72;5080116;28;827;-30
2021/08/04 11:11:49;;;;;;;;;;;;;;;23.99;48.66;100685.38;5098999;28;844;-35
2021/08/04 11:14:33;;;;;;;;;;;;;;;21.98;48.81;100676.84;5098735;28;759;-25
2021/08/04 11:17:01;;;;;;;;;;;;;;;21.29;48.23;100677.97;5079856;28;1301;-27
2021/08/04 11:19:34;;;;;;;;;;;;;;;20.83;47.52;100665.22;5098879;28;931;-27
2021/08/04 11:22:17;;;;;;;;;;;;;;;20.48;47.67;100669.31;5098583;28;820;-33
2021/08/04 11:24:55;;;;;;;;;;;;;;;19.99;47.59;100662.03;5098050;28;1339;-30
2021/08/04 11:27:27;;;;;;;;;;;;;;;19.66;45.75;100651.56;5098866;28;1971;-36
2021/08/04 11:29:54;;;;;;;;;;;;;;;19.57;44.62;100658.53;5098354;28;807;-32
2021/08/04 11:32:19;;;;;;;;;;;;;;;16.98;51.18;100650.88;5098101;28;744;-38
2021/08/04 11:34:45;;;;;;;;;;;;;;;19.58;43.98;100649.56;5098180;28;946;-36
2021/08/04 11:37:10;;;;;;;;;;;;;;;19.61;42.06;100657.31;5079854;28;777;-36
2021/08/04 11:39:35;;;;;;;;;;;;;;;19.45;42.83;100647.97;5098062;28;748;-37
2021/08/04 11:42:05;;;;;;;;;;;;;;;19.52;50.30;100653.59;5098034;28;767;-33
2021/08/04 11:44:31;;;;;;;;;;;;;;;22.55;43.90;100650.78;5097890;28;944;-33
2021/08/04 11:47:06;;;;;;;;;;;;;;;23.63;43.13;100651.50;5093939;28;1910;-30
2021/08/04 11:49:32;;;;;;;;;;;;;;;21.68;49.12;100652.03;5096275;28;867;-35
2021/08/04 11:51:58;;;;;;;;;;;;;;;18.93;52.51;100653.28;5097797;28;764;-38
2021/08/04 11:54:46;;;;;;;;;;;;;;;17.66;53.17;100647.47;5096783;28;1163;-39
2021/08/04 11:57:12;;;;;;;;;;;;;;;16.97;53.72;100647.38;5086422;28;1136;-38
2021/08/04 11:59:44;;;;;;;;;;;;;;;16.82;53.18;100641.41;5096637;28;822;-35
2021/08/04 12:02:09;;;;;;;;;;;;;;;16.59;53.38;100637.84;5097116;28;850;-29
2021/08/04 12:04:41;;;;;;;;;;;;;;;16.31;53.56;100645.22;5096174;28;970;-35
2021/08/04 12:07:06;;;;;;;;;;;;;;;15.98;52.49;100643.09;5096801;28;1906;-30
2021/08/04 12:09:32;;;;;;;;;;;;;;;15.29;52.85;100599.28;5097181;28;700;-34
2021/08/04 12:11:58;;;;;;;;;;;;;;;15.28;53.46;100637.34;5097545;28;747;-29
2021/08/04 12:14:24;;;;;;;;;;;;;;;15.18;53.62;100631.84;5096677;28;918;-30
2021/08/04 12:16:50;;;;;;;;;;;;;;;15.03;53.11;100631.94;5097212;28;896;-37
2021/08/04 12:19:34;;;;;;;;;;;;;;;15.30;53.91;100636.28;5097393;28;1014;-36
2021/08/04 12:22:00;;;;;;;;;;;;;;;15.27;53.96;100638.28;5075784;28;848;-36
2021/08/04 12:24:26;;;;;;;;;;;;;;;15.21;53.89;100630.78;5081398;28;1100;-31
2021/08/04 12:26:52;;;;;;;;;;;;;;;15.16;54.82;100631.09;5096909;28;1909;-37
2021/08/04 12:29:24;;;;;;;;;;;;;;;15.37;54.51;100635.84;5097110;28;758;-32
2021/08/04 12:32:11;;;;;;;;;;;;;;;15.23;54.20;100629.69;5095921;28;805;-31
2021/08/04 12:34:42;;;;;;;;;;;;;;;15.16;54.84;100625.81;5096656;28;994;-37
2021/08/04 12:37:08;;;;;;;;;;;;;;;15.09;55.88;100613.91;5096490;28;760;-37
2021/08/04 12:39:34;;;;;;;;;;;;;;;15.24;55.99;100615.50;5096776;28;780;-36
2021/08/04 12:41:59;;;;;;;;;;;;;;;15.26;56.51;100612.75;5078589;28;843;-30
2021/08/04 12:44:25;;;;;;;;;;;;;;;15.49;58.23;100623.53;5096105;28;761;-29
2021/08/04 12:46:51;;;;;;;;;;;;;;;15.69;60.45;100614.19;5096690;28;1902;-31
2021/08/04 12:49:17;;;;;;;;;;;;;;;15.67;60.11;100622.25;5077663;28;991;-32
2021/08/04 12:51:55;;;;;;;;;;;;;;;15.44;59.33;100618.56;5095641;28;851;-36
2021/08/04 12:54:32;;;;;;;;;;;;;;;15.15;59.65;100618.78;5096077;28;1225;-30